Forage Plot, Arizona (BMGR) Weather observations

Data are for 10 minute period ending at time listed.
 Day   Time   Solar   Ave.   Ave.  Ave.  Vector  Max.   Total    
  of    of     Rad.   Air    Rel.  Wind   Wind   Wind  Precip.   
Year   Day            Temp.  Hum.  Speed  Dir.   Gust            
2026   (MST)  Kw/m2    F      %     mph   deg.    mph    in.     
-----------------------------------------------------------------
 128   10:35   0.80   91.0    18    6.3   157     9.9    0.00 
 128   10:40   0.81   92.1    17    6.0   176     9.9    0.00 
 128   10:45   0.82   92.1    17    5.3   159     8.8    0.00 
 128   10:50   0.82   92.5    17    4.4   178    10.5    0.00 
 128   10:55   0.83   93.5    16    4.0   197     7.1    0.00 
 128   11:00   0.84   94.1    16    3.8   189     8.2    0.00 
 128   11:05   0.85   94.6    16    5.0   220     9.3    0.00 
 128   11:10   0.86   95.0    15    3.9   192     7.7    0.00 
 128   11:15   0.86   94.7    15    3.9   182     7.1    0.00 
 128   11:20   0.87   93.9    16    3.5   167     7.7    0.00 
 128   11:25   0.88   94.4    15    4.4   244    12.1    0.00 
 128   11:30   0.88   93.7    16    1.5   102     3.8    0.00 
 128   11:35   0.89   95.3    15    2.5   210     7.7    0.00 
 128   11:40   0.89   95.3    15    4.8   273    10.5    0.00 
 128   11:45   0.90   95.7    15    4.6   203    10.5    0.00 
 128   11:50   0.90   95.5    15    5.8   157     8.2    0.00 
 128   11:55   0.90   95.0    15    4.2   150     9.3    0.00 
 128   12:00   0.91   96.8    14    3.6   214     7.1    0.00 
 128   12:05   0.91   96.7    14    2.8   243     7.1    0.00 
 128   12:10   0.91   97.0    14    4.8   248    12.1    0.00 
 128   12:15   0.91   97.4    14    4.9   289     9.9    0.00 
 128   12:20   0.92   97.1    14    5.8   286    12.1    0.00 
 128   12:25   0.92   96.8    14    6.3   268     9.3    0.00 
 128   12:30   0.92   96.9    14    6.5   280    11.0    0.00 
 128   12:35   0.92   97.6    14    6.5   257    13.3    0.00 
 128   12:40   0.92   97.6    14    2.8   273     8.2    0.00 
 128   12:45   0.92   97.4    14    6.8   282    14.4    0.00 
 128   12:50   0.92   97.4    14    3.9   312     7.7    0.00 
 128   12:55   0.92   98.3    14    5.8   264    11.6    0.00 
 128   13:00   0.91   99.1    14    5.8   240    14.4    0.00 
 128   13:05   0.91   98.2    14    5.5   286    12.1    0.00 
 128   13:10   0.91   98.5    14    5.9   319     9.3    0.00 
 128   13:15   0.91   98.2    14    5.9   313    12.1    0.00 
 128   13:20   0.90   99.4    14    5.0   208     9.3    0.00 
 128   13:25   0.90   99.7    13    6.6   233    12.1    0.00 
 128   13:30   0.89  100.1    13    9.1   268    13.8    0.00 
 128   13:35   0.89   99.1    13    6.1   279    13.3    0.00 
 128   13:40   0.88   99.2    13    5.6   271    11.6    0.00 
 128   13:45   0.88  100.1    13    3.6   204     8.2    0.00 
 128   13:50   0.88  101.3    12    6.8   289    13.3    0.00 
 128   13:55   0.87  100.0    12    3.6   288     8.8    0.00 
 128   14:00   0.86  100.6    12    4.4   293     9.3    0.00 
 128   14:05   0.85  100.2    12    8.0   290    13.8    0.00 
 128   14:10   0.85  100.6    12    7.1   296    12.1    0.00 
 128   14:15   0.84  100.6    12    7.9   254    16.0    0.00 
 128   14:20   0.83  100.8    11    8.8   281    12.7    0.00 
 128   14:25   0.83  101.0    11    9.2   312    12.1    0.00 
 128   14:30   0.82  100.5    11    8.0   315    14.9    0.00 
 128   14:35   0.81  100.7    11    6.3   304    13.3    0.00 
 128   14:40   0.80  100.9    11    7.1   277    13.3    0.00 
 128   14:45   0.79  101.1    11    6.5   295    12.7    0.00 
 128   14:50   0.78  101.6    11    9.0   273    14.9    0.00 
 128   14:55   0.77  102.4    11   10.1   287    15.5    0.00 
 128   15:00   0.75  101.0    11    6.8   277    13.8    0.00 
 128   15:05   0.74  101.2    11    2.9   297     7.7    0.00 
 128   15:10   0.73  101.4    11    6.0   282    11.0    0.00 
 128   15:15   0.72  102.3    11    7.1   244    12.1    0.00 
 128   15:20   0.71  101.2    11    8.7   291    18.3    0.00 
 128   15:25   0.69  101.4    11   10.2   277    16.6    0.00 
 128   15:30   0.68  101.0    11    6.8   244    12.7    0.00 
 128   15:35   0.67  101.6    11    9.8   265    14.9    0.00 
 128   15:40   0.66  101.2    11    8.1   272    16.0    0.00 
 128   15:45   0.64  102.4    11    9.5   248    17.2    0.00 
 128   15:50   0.63  101.8    11    9.8   253    14.9    0.00 
 128   15:55   0.62  101.2    11   10.7   284    14.9    0.00 
 128   16:00   0.60  101.2    11   10.0   285    19.4    0.00 
 128   16:05   0.59  100.6    11    6.9   269    10.5    0.00 
 128   16:10   0.57  101.4    11    9.4   276    14.4    0.00 
 128   16:15   0.56  101.4    11    9.8   287    14.9    0.00 
 128   16:20   0.55  101.2    11    8.2   287    17.2    0.00 
 128   16:25   0.53  100.7    11    6.4   279    13.3    0.00 
 128   16:30   0.52  100.8    11    8.9   272    16.0    0.00 
 128   16:35   0.50  100.4    11    9.2   259    14.4    0.00 
 128   16:40   0.49  100.9    11    9.5   248    14.9    0.00 
 128   16:45   0.47  101.0    10    8.9   260    18.9    0.00 
 128   16:50   0.45  101.4    10    7.8   273    13.8    0.00 
 128   16:55   0.44  101.2    10    8.5   277    14.4    0.00 
 128   17:00   0.42  100.7    10    8.7   276    13.8    0.00 
 128   17:05   0.41  100.7    10    8.8   282    13.8    0.00 
 128   17:10   0.39  100.4    10    8.0   294    14.9    0.00 
 128   17:15   0.37  100.5    10    6.7   260    11.0    0.00 
 128   17:20   0.36  100.2    10    8.3   268    15.5    0.00 
 128   17:25   0.34  100.3    10    7.2   266    12.1    0.00 
 128   17:30   0.33   99.9    10    9.4   273    15.5    0.00 
 128   17:35   0.31  100.1    10    7.5   270    11.0    0.00 
 128   17:40   0.29  100.0    10    7.9   291    13.3    0.00 
 128   17:45   0.27  100.1    10    8.3   267    13.3    0.00 
 128   17:50   0.26   99.6    11   10.0   266    14.4    0.00 
 128   17:55   0.24   99.4    11    7.9   253    13.3    0.00 
 128   18:00   0.22   99.4    11    8.7   260    11.6    0.00 
 128   18:05   0.21   99.4    11    6.6   249    13.3    0.00 
 128   18:10   0.19   99.3    11    6.2   257    10.5    0.00 
 128   18:15   0.18   99.5    11    7.2   267     9.9    0.00 
 128   18:20   0.16   99.0    11    8.6   270    12.7    0.00 
 128   18:25   0.15   98.5    11    7.8   257    13.8    0.00 
 128   18:30   0.13   98.5    11    7.8   264    11.0    0.00 
 128   18:35   0.12   98.5    11    6.5   267    11.6    0.00 
 128   18:40   0.10   98.1    11    7.7   278    11.0    0.00 
 128   18:45   0.09   97.7    11    7.2   264     9.9    0.00 
 128   18:50   0.07   97.6    11    6.0   253     9.3    0.00 
 128   18:55   0.06   97.2    11    6.3   266     8.8    0.00 
 128   19:00   0.05   96.8    11    7.1   260    11.6    0.00 
 128   19:05   0.04   96.4    11    7.8   264    13.3    0.00 
 128   19:10   0.02   96.0    11    5.4   256     7.7    0.00 
 128   19:15   0.01   95.4    11    5.4   250     7.7    0.00 
 128   19:20   0.01   95.0    11    5.6   255     9.3    0.00 
 128   19:25   0.00   94.6    11    5.0   260     8.2    0.00 
 128   19:30   0.00   93.9    11    3.5   255     6.0    0.00 
 128   19:35   0.00   93.5    11    4.5   260     9.9    0.00 
 128   19:40   0.00   93.0    12    2.7   245     4.3    0.00 
 128   19:45   0.00   92.3    12    2.4   248     4.3    0.00 
 128   19:50   0.00   91.6    12    1.9   237     3.8    0.00 
 128   19:55   0.00   91.3    12    2.0   235     3.2    0.00 
 128   20:00   0.00   91.1    12    1.9   249     3.8    0.00 
 128   20:05   0.00   90.9    12    2.4   240     4.9    0.00 
 128   20:10   0.00   91.0    12    2.6   233     4.3    0.00 
 128   20:15   0.00   90.8    13    2.1   230     3.8    0.00 
 128   20:20   0.00   90.2    13    0.8   221     2.6    0.00 
 128   20:25   0.00   89.4    13    1.6   180     3.2    0.00 
 128   20:30   0.00   88.9    14    2.7   134     4.3    0.00 
 128   20:35   0.00   88.1    16    2.3   137     3.8    0.00 
 128   20:40   0.00   86.9    18    2.4   127     3.2    0.00 
 128   20:45   0.00   86.1    18    3.1   124     3.8    0.00 
 128   20:50   0.00   85.5    19    3.4   114     4.3    0.00 
 128   20:55   0.00   85.2    20    3.9   114     4.9    0.00 
 128   21:00   0.00   85.1    22    5.5   115     7.1    0.00 
 128   21:05   0.00   85.7    22    5.6   120     7.1    0.00 
 128   21:10   0.00   85.9    23    5.2   127     7.1    0.00 
 128   21:15   0.00   85.8    23    5.3   130     7.7    0.00 
 128   21:20   0.00   85.5    23    4.5   129     6.5    0.00 
 128   21:25   0.00   85.0    23    4.1   132     5.4    0.00 
 128   21:30   0.00   84.6    23    4.2   129     6.0    0.00 
 128   21:35   0.00   84.4    23    5.2   136     7.7    0.00 
 128   21:40   0.00   85.0    23    5.5   133     8.2    0.00 
 128   21:45   0.00   84.7    23    4.6   134     6.5    0.00 
 128   21:50   0.00   84.1    23    5.0   134     7.1    0.00 
 128   21:55   0.00   83.7    23    4.5   137     6.0    0.00 
 128   22:00   0.00   83.9    23    4.7   134     6.5    0.00 
 128   22:05   0.00   83.8    23    4.8   127     6.5    0.00 
 128   22:10   0.00   83.4    22    4.9   120     6.5    0.00 
 128   22:15   0.00   82.9    22    5.6   122     7.7    0.00 
 128   22:20   0.00   83.2    22    5.6   126     7.7    0.00 
 128   22:25   0.00   83.1    22    6.0   125     7.7    0.00 
 128   22:30   0.00   82.7    22    5.3   132     7.1    0.00 
 128   22:35   0.00   82.2    22    4.8   139     6.5    0.00 
 128   22:40   0.00   82.1    21    5.2   135     7.7    0.00 
 128   22:45   0.00   81.8    21    4.7   141     6.5    0.00 
 128   22:50   0.00   81.5    21    5.3   143     7.7    0.00 
 128   22:55   0.00   81.5    20    5.0   138     7.1    0.00 
 128   23:00   0.00   81.5    19    5.6   134     7.1    0.00 
 128   23:05   0.00   81.9    18    5.3   137     7.1    0.00 
 128   23:10   0.00   81.9    18    5.8   141     8.8    0.00 
 128   23:15   0.00   82.3    18    6.4   145     9.3    0.00 
 128   23:20   0.00   82.6    17    6.8   145     9.3    0.00 
 128   23:25   0.00   82.8    17    7.1   146    10.5    0.00 
 128   23:30   0.00   82.4    17    6.7   148     8.8    0.00 
 128   23:35   0.00   82.2    17    6.2   147     9.3    0.00 
 128   23:40   0.00   82.0    17    6.0   142     8.2    0.00 
 128   23:45   0.00   81.7    17    5.9   146     8.8    0.00 
 128   23:50   0.00   81.5    17    5.7   138     8.2    0.00 
 128   23:55   0.00   81.8    16    6.3   143     9.9    0.00 
 129    0:00   0.00   81.7    16    6.4   146     9.9    0.00 
 129    0:05   0.00   81.6    16    6.5   146     9.3    0.00 
 129    0:10   0.00   81.2    16    5.6   141     7.7    0.00 
 129    0:15   0.00   80.5    17    5.1   134     7.7    0.00 
 129    0:20   0.00   80.1    17    5.2   137     6.5    0.00 
 129    0:25   0.00   79.8    17    4.8   148     6.5    0.00 
 129    0:30   0.00   79.6    17    5.0   154     8.2    0.00 
 129    0:35   0.00   79.5    18    5.1   164     7.1    0.00 
 129    0:40   0.00   79.0    18    4.5   163     7.7    0.00 
 129    0:45   0.00   78.9    19    3.7   152     5.4    0.00 
 129    0:50   0.00   78.4    19    0.8   129     3.2    0.00 
 129    0:55   0.00   78.2    19    1.5   141     3.2    0.00 
 129    1:00   0.00   76.9    20    2.8   239     5.4    0.00 
 129    1:05   0.00   75.0    21    0.6   225     4.3    0.00 
 129    1:10   0.00   74.0    22    1.8   182     3.8    0.00 
 129    1:15   0.00   73.3    22    2.8   161     3.8    0.00 
 129    1:20   0.00   73.6    23    2.7   170     3.8    0.00 
 129    1:25   0.00   72.8    23    1.2   183     2.6    0.00 
 129    1:30   0.00   72.2    24    2.9   162     3.8    0.00 
 129    1:35   0.00   72.1    24    3.5   145     4.3    0.00 
 129    1:40   0.00   71.8    24    3.6   147     4.9    0.00 
 129    1:45   0.00   71.5    24    3.6   140     4.9    0.00 
 129    1:50   0.00   71.3    24    4.1   138     5.4    0.00 
 129    1:55   0.00   71.4    24    3.8   142     4.9    0.00 
 129    2:00   0.00   71.7    23    3.8   141     5.4    0.00 
 129    2:05   0.00   72.2    22    4.3   144     5.4    0.00 
 129    2:10   0.00   72.4    22    4.2   134     5.4    0.00 
 129    2:15   0.00   72.9    21    4.1   144     6.0    0.00 
 129    2:20   0.00   73.6    22    5.2   139     6.5    0.00 
 129    2:25   0.00   74.4    21    4.5   136     6.0    0.00 
 129    2:30   0.00   74.3    21    4.6   140     6.5    0.00 
 129    2:35   0.00   74.1    22    4.5   138     6.0    0.00 
 129    2:40   0.00   73.9    22    4.1   141     5.4    0.00 
 129    2:45   0.00   73.5    22    3.4   144     4.3    0.00 
 129    2:50   0.00   73.0    22    3.4   153     4.3    0.00 
 129    2:55   0.00   72.5    23    4.1   158     5.4    0.00 
 129    3:00   0.00   73.0    22    4.3   154     5.4    0.00 
 129    3:05   0.00   73.8    22    3.9   154     4.9    0.00 
 129    3:10   0.00   74.0    22    4.3   147     5.4    0.00 
 129    3:15   0.00   73.8    21    4.0   144     5.4    0.00 
 129    3:20   0.00   73.5    22    3.4   148     4.3    0.00 
 129    3:25   0.00   73.2    22    4.1   151     5.4    0.00 
 129    3:30   0.00   73.3    22    4.3   152     6.0    0.00 
 129    3:35   0.00   72.9    22    4.2   152     6.0    0.00 
 129    3:40   0.00   73.0    22    4.0   151     5.4    0.00 
 129    3:45   0.00   72.5    22    4.0   151     5.4    0.00 
 129    3:50   0.00   72.0    23    4.5   147     6.0    0.00 
 129    3:55   0.00   71.9    23    4.9   146     6.5    0.00 
 129    4:00   0.00   71.7    23    3.4   148     6.0    0.00 
 129    4:05   0.00   71.1    23    3.5   158     4.3    0.00 
 129    4:10   0.00   70.1    24    3.8   153     4.9    0.00 
 129    4:15   0.00   69.4    24    3.9   161     4.9    0.00 
 129    4:20   0.00   68.6    25    4.2   161     5.4    0.00 
 129    4:25   0.00   68.5    26    4.0   162     5.4    0.00 
 129    4:30   0.00   68.3    26    4.1   167     5.4    0.00 
 129    4:35   0.00   67.9    27    4.6   167     6.5    0.00 
 129    4:40   0.00   67.8    27    5.0   162     6.5    0.00 
 129    4:45   0.00   67.5    28    5.4   161     7.1    0.00 
 129    4:50   0.00   67.2    28    4.9   157     6.5    0.00 
 129    4:55   0.00   66.8    28    5.1   159     6.5    0.00 
 129    5:00   0.00   66.4    28    5.7   164     8.2    0.00 
 129    5:05   0.00   66.4    28    5.6   162     7.7    0.00 
 129    5:10   0.00   66.3    28    5.2   160     8.2    0.00 
 129    5:15   0.00   66.4    28    5.3   160     6.5    0.00 
 129    5:20   0.00   66.8    28    5.0   149     7.7    0.00 
 129    5:25   0.00   67.0    28    6.8   168     9.9    0.00 
 129    5:30   0.00   67.4    27    6.7   151    10.5    0.00 
 129    5:35   0.00   66.8    27    5.3   163     8.2    0.00 
 129    5:40   0.00   67.1    27    6.5   143     8.8    0.00 
 129    5:45   0.01   67.7    27    5.1   152     7.1    0.00 
 129    5:50   0.01   67.4    27    5.3   158     7.7    0.00 
 129    5:55   0.01   67.1    27    5.9   159     7.7    0.00 
 129    6:00   0.01   67.6    26    5.7   152     7.7    0.00 
 129    6:05   0.03   67.6    26    6.0   153     7.7    0.00 
 129    6:10   0.05   67.7    26    5.8   152     7.7    0.00 
 129    6:15   0.06   67.9    26    5.3   149     7.7    0.00 
 129    6:20   0.08   68.2    25    5.2   155     7.7    0.00 
 129    6:25   0.09   68.7    25    5.1   148     7.7    0.00 
 129    6:30   0.10   69.6    24    6.2   149     8.2    0.00 
 129    6:35   0.11   71.0    23    5.3   144     7.1    0.00 
 129    6:40   0.13   71.7    22    5.6   148     8.2    0.00 
 129    6:45   0.14   71.8    22    5.7   147     8.8    0.00 
 129    6:50   0.16   72.0    22    5.7   149     7.1    0.00 
 129    6:55   0.17   72.4    22    5.7   150     8.2    0.00 
 129    7:00   0.19   72.6    22    5.7   150     8.2    0.00 
 129    7:05   0.20   73.0    22    6.0   146     8.8    0.00 
 129    7:10   0.22   73.2    22    5.8   149     8.8    0.00 
 129    7:15   0.24   73.7    21    5.8   155     7.7    0.00 
 129    7:20   0.25   74.2    21    5.8   146     8.2    0.00 
 129    7:25   0.27   75.1    20    5.5   145     8.8    0.00 
 129    7:30   0.28   76.0    20    6.1   145     9.3    0.00 
 129    7:35   0.30   77.1    19    6.4   150     9.3    0.00 
 129    7:40   0.32   78.3    19    6.1   150     8.8    0.00 
 129    7:45   0.33   79.1    18    6.4   148     9.3    0.00 
 129    7:50   0.35   80.2    18    5.9   149     9.3    0.00 
 129    7:55   0.37   80.8    18    6.7   151    10.5    0.00 
 129    8:00   0.38   81.6    18    5.6   145     8.2    0.00 
 129    8:05   0.40   82.7    17    5.9   150     8.2    0.00 
 129    8:10   0.42   83.3    17    6.3   146     8.8    0.00 
 129    8:15   0.43   84.0    17    6.5   148     9.9    0.00 
 129    8:20   0.45   85.2    16    5.8   161     8.8    0.00 
 129    8:25   0.46   86.1    16    5.1   157     8.2    0.00 
 129    8:30   0.48   86.5    15    6.3   160     9.3    0.00 
 129    8:35   0.50   86.9    15    6.4   161     9.3    0.00 
 129    8:40   0.51   87.1    15    6.9   170     8.8    0.00 
 129    8:45   0.53   87.7    15    6.4   170     8.8    0.00 
 129    8:50   0.54   88.2    14    6.3   166     9.3    0.00 
 129    8:55   0.56   88.8    14    6.0   160     9.9    0.00 
 129    9:00   0.57   89.5    14    5.6   151     8.2    0.00 
 129    9:05   0.59   89.6    13    5.7   161     8.8    0.00 
 129    9:10   0.60   90.0    13    6.1   162     8.2    0.00 
 129    9:15   0.62   90.7    13    5.8   171     8.8    0.00 
 129    9:20   0.63   91.0    12    5.6   155     8.2    0.00 
 129    9:25   0.65   91.6    12    5.2   165     8.2    0.00 
 129    9:30   0.66   92.2    12    5.0   174     8.2    0.00 
 129    9:35   0.67   92.6    12    5.4   175     9.3    0.00 
 129    9:40   0.68   92.5    11    5.0   176     8.8    0.00 
 129    9:45   0.70   92.8    11    4.2   161     7.1    0.00 
 129    9:50   0.71   93.7    10    3.9   181     7.1    0.00 
 129    9:55   0.72   93.7    10    3.9   167     6.5    0.00 
 129   10:00   0.73   93.9    10    4.3   147     7.1    0.00 
 129   10:05   0.75   94.4    10    3.6   151     6.5    0.00 
 129   10:10   0.76   94.7     9    2.8   133     7.1    0.00 
 129   10:15   0.77   95.8     9    2.7   201     5.4    0.00 
 129   10:20   0.78   95.8     9    2.7   107     5.4    0.00 
 129   10:25   0.79   96.6     9    2.1   192     4.9    0.00 
 129   10:30   0.80   97.3     9    2.6   229     4.9    0.00 

Return to Forage Plot graphs page.


Western Regional Climate Center,wrcc@dri.edu